sensor_id;sensor_type;location;lat;lon;timestamp;temperature;humidity
11989;DHT22;6054;50.966;7.094;2023-04-03T00:00:37;12.60;43.50
11989;DHT22;6054;50.966;7.094;2023-04-03T00:03:05;12.60;43.60
11989;DHT22;6054;50.966;7.094;2023-04-03T00:05:32;12.70;43.40
11989;DHT22;6054;50.966;7.094;2023-04-03T00:07:58;12.50;43.40
11989;DHT22;6054;50.966;7.094;2023-04-03T00:10:27;12.50;43.20
11989;DHT22;6054;50.966;7.094;2023-04-03T00:12:54;12.50;43.80
11989;DHT22;6054;50.966;7.094;2023-04-03T00:15:21;12.50;43.60
11989;DHT22;6054;50.966;7.094;2023-04-03T00:17:48;12.70;43.80
11989;DHT22;6054;50.966;7.094;2023-04-03T00:20:16;12.60;43.70
11989;DHT22;6054;50.966;7.094;2023-04-03T00:22:43;12.40;43.70
11989;DHT22;6054;50.966;7.094;2023-04-03T00:25:10;12.40;43.50
11989;DHT22;6054;50.966;7.094;2023-04-03T00:27:37;12.30;43.30
11989;DHT22;6054;50.966;7.094;2023-04-03T00:30:06;12.30;43.40
11989;DHT22;6054;50.966;7.094;2023-04-03T00:32:34;12.30;43.70
11989;DHT22;6054;50.966;7.094;2023-04-03T00:35:01;12.30;43.50
11989;DHT22;6054;50.966;7.094;2023-04-03T00:37:29;12.60;43.80
11989;DHT22;6054;50.966;7.094;2023-04-03T00:39:56;12.20;43.30
11989;DHT22;6054;50.966;7.094;2023-04-03T00:42:23;12.50;43.40
11989;DHT22;6054;50.966;7.094;2023-04-03T00:48:08;12.10;43.90
11989;DHT22;6054;50.966;7.094;2023-04-03T00:50:38;12.10;43.80
11989;DHT22;6054;50.966;7.094;2023-04-03T00:53:09;12.10;43.90
11989;DHT22;6054;50.966;7.094;2023-04-03T00:55:38;12.00;44.00
11989;DHT22;6054;50.966;7.094;2023-04-03T00:58:06;12.00;44.10
11989;DHT22;6054;50.966;7.094;2023-04-03T01:00:36;12.00;44.00
11989;DHT22;6054;50.966;7.094;2023-04-03T01:03:03;12.00;44.10
11989;DHT22;6054;50.966;7.094;2023-04-03T01:05:30;12.30;43.90
11989;DHT22;6054;50.966;7.094;2023-04-03T01:07:58;11.90;43.80
11989;DHT22;6054;50.966;7.094;2023-04-03T01:10:26;11.90;44.00
11989;DHT22;6054;50.966;7.094;2023-04-03T01:12:53;11.90;43.70
11989;DHT22;6054;50.966;7.094;2023-04-03T01:15:23;12.10;44.00
11989;DHT22;6054;50.966;7.094;2023-04-03T01:17:51;11.80;44.10
11989;DHT22;6054;50.966;7.094;2023-04-03T01:20:36;11.80;44.20
11989;DHT22;6054;50.966;7.094;2023-04-03T01:23:22;11.70;44.30
11989;DHT22;6054;50.966;7.094;2023-04-03T01:25:54;11.70;44.40
11989;DHT22;6054;50.966;7.094;2023-04-03T01:28:23;11.60;44.00
11989;DHT22;6054;50.966;7.094;2023-04-03T01:30:53;11.90;44.60
11989;DHT22;6054;50.966;7.094;2023-04-03T01:33:23;11.60;44.40
11989;DHT22;6054;50.966;7.094;2023-04-03T01:35:50;11.60;44.00
11989;DHT22;6054;50.966;7.094;2023-04-03T01:38:16;11.50;43.90
11989;DHT22;6054;50.966;7.094;2023-04-03T01:40:44;11.50;43.90
11989;DHT22;6054;50.966;7.094;2023-04-03T01:43:11;11.50;43.60
11989;DHT22;6054;50.966;7.094;2023-04-03T01:45:38;11.40;43.30
11989;DHT22;6054;50.966;7.094;2023-04-03T01:48:05;11.40;43.60
11989;DHT22;6054;50.966;7.094;2023-04-03T01:50:33;11.40;43.90
11989;DHT22;6054;50.966;7.094;2023-04-03T01:53:00;11.30;43.60
11989;DHT22;6054;50.966;7.094;2023-04-03T01:55:27;11.60;44.00
11989;DHT22;6054;50.966;7.094;2023-04-03T01:57:53;11.30;44.00
11989;DHT22;6054;50.966;7.094;2023-04-03T02:00:20;11.20;44.00
11989;DHT22;6054;50.966;7.094;2023-04-03T02:02:47;11.20;43.80
11989;DHT22;6054;50.966;7.094;2023-04-03T02:05:14;11.20;44.00
11989;DHT22;6054;50.966;7.094;2023-04-03T02:07:42;11.20;44.30
11989;DHT22;6054;50.966;7.094;2023-04-03T02:10:09;11.40;44.00
11989;DHT22;6054;50.966;7.094;2023-04-03T02:12:36;11.10;44.00
11989;DHT22;6054;50.966;7.094;2023-04-03T02:15:04;11.10;43.70
11989;DHT22;6054;50.966;7.094;2023-04-03T02:17:31;11.10;44.40
11989;DHT22;6054;50.966;7.094;2023-04-03T02:19:58;11.10;44.00
11989;DHT22;6054;50.966;7.094;2023-04-03T02:22:24;11.00;43.70
11989;DHT22;6054;50.966;7.094;2023-04-03T02:24:52;11.40;44.40
11989;DHT22;6054;50.966;7.094;2023-04-03T02:27:19;11.00;43.80
11989;DHT22;6054;50.966;7.094;2023-04-03T02:29:46;11.00;44.50
11989;DHT22;6054;50.966;7.094;2023-04-03T02:32:13;10.90;43.60
11989;DHT22;6054;50.966;7.094;2023-04-03T02:34:40;10.90;43.80
11989;DHT22;6054;50.966;7.094;2023-04-03T02:37:07;10.90;43.60
11989;DHT22;6054;50.966;7.094;2023-04-03T02:39:34;10.90;43.80
11989;DHT22;6054;50.966;7.094;2023-04-03T02:42:02;10.80;44.10
11989;DHT22;6054;50.966;7.094;2023-04-03T02:44:29;10.80;44.20
11989;DHT22;6054;50.966;7.094;2023-04-03T02:46:55;10.80;43.80
11989;DHT22;6054;50.966;7.094;2023-04-03T02:49:22;10.80;44.30
11989;DHT22;6054;50.966;7.094;2023-04-03T02:51:49;10.70;44.00
11989;DHT22;6054;50.966;7.094;2023-04-03T02:54:16;10.70;44.20
11989;DHT22;6054;50.966;7.094;2023-04-03T02:56:43;10.70;44.30
11989;DHT22;6054;50.966;7.094;2023-04-03T02:59:11;10.60;44.10
11989;DHT22;6054;50.966;7.094;2023-04-03T03:01:38;10.60;44.30
11989;DHT22;6054;50.966;7.094;2023-04-03T03:04:04;10.60;44.00
11989;DHT22;6054;50.966;7.094;2023-04-03T03:06:31;10.60;44.30
11989;DHT22;6054;50.966;7.094;2023-04-03T03:08:58;10.60;44.20
11989;DHT22;6054;50.966;7.094;2023-04-03T03:11:25;10.50;44.30
11989;DHT22;6054;50.966;7.094;2023-04-03T03:13:52;10.70;44.50
11989;DHT22;6054;50.966;7.094;2023-04-03T03:16:20;10.50;44.40
11989;DHT22;6054;50.966;7.094;2023-04-03T03:18:47;10.50;44.30
11989;DHT22;6054;50.966;7.094;2023-04-03T03:21:14;10.50;44.30
11989;DHT22;6054;50.966;7.094;2023-04-03T03:23:41;10.50;44.40
11989;DHT22;6054;50.966;7.094;2023-04-03T03:26:09;10.50;44.10
11989;DHT22;6054;50.966;7.094;2023-04-03T03:28:37;10.50;44.50
11989;DHT22;6054;50.966;7.094;2023-04-03T03:31:05;10.70;44.60
11989;DHT22;6054;50.966;7.094;2023-04-03T03:33:33;10.50;45.20
11989;DHT22;6054;50.966;7.094;2023-04-03T03:36:00;10.50;43.70
11989;DHT22;6054;50.966;7.094;2023-04-03T03:38:27;10.50;43.80
11989;DHT22;6054;50.966;7.094;2023-04-03T03:40:54;10.50;44.10
11989;DHT22;6054;50.966;7.094;2023-04-03T03:43:20;10.50;44.30
11989;DHT22;6054;50.966;7.094;2023-04-03T03:45:50;10.50;44.30
11989;DHT22;6054;50.966;7.094;2023-04-03T03:48:17;10.50;44.70
11989;DHT22;6054;50.966;7.094;2023-04-03T03:50:46;10.50;44.50
11989;DHT22;6054;50.966;7.094;2023-04-03T03:53:12;10.40;44.30
11989;DHT22;6054;50.966;7.094;2023-04-03T03:55:40;10.40;43.90
11989;DHT22;6054;50.966;7.094;2023-04-03T03:58:07;10.40;44.00
11989;DHT22;6054;50.966;7.094;2023-04-03T04:00:33;10.40;44.20
11989;DHT22;6054;50.966;7.094;2023-04-03T04:03:00;10.40;44.20
11989;DHT22;6054;50.966;7.094;2023-04-03T04:05:27;10.40;44.00
11989;DHT22;6054;50.966;7.094;2023-04-03T04:07:56;10.50;44.40
11989;DHT22;6054;50.966;7.094;2023-04-03T04:10:22;10.30;44.20
11989;DHT22;6054;50.966;7.094;2023-04-03T04:12:49;10.30;43.90
11989;DHT22;6054;50.966;7.094;2023-04-03T04:15:16;10.40;43.90
11989;DHT22;6054;50.966;7.094;2023-04-03T04:17:43;10.30;44.10
11989;DHT22;6054;50.966;7.094;2023-04-03T04:20:11;10.30;43.90
11989;DHT22;6054;50.966;7.094;2023-04-03T04:22:37;10.30;44.00
11989;DHT22;6054;50.966;7.094;2023-04-03T04:25:06;10.30;44.20
11989;DHT22;6054;50.966;7.094;2023-04-03T04:27:33;10.30;44.10
11989;DHT22;6054;50.966;7.094;2023-04-03T04:30:00;10.30;43.90
11989;DHT22;6054;50.966;7.094;2023-04-03T04:32:28;10.30;44.20
11989;DHT22;6054;50.966;7.094;2023-04-03T04:34:54;10.30;44.00
11989;DHT22;6054;50.966;7.094;2023-04-03T04:37:21;10.20;44.00
11989;DHT22;6054;50.966;7.094;2023-04-03T04:39:48;10.50;44.10
11989;DHT22;6054;50.966;7.094;2023-04-03T04:42:16;10.30;44.00
11989;DHT22;6054;50.966;7.094;2023-04-03T04:44:43;10.20;44.10
11989;DHT22;6054;50.966;7.094;2023-04-03T04:47:10;10.20;43.70
11989;DHT22;6054;50.966;7.094;2023-04-03T04:49:37;10.20;43.80
11989;DHT22;6054;50.966;7.094;2023-04-03T04:52:04;10.20;43.50
11989;DHT22;6054;50.966;7.094;2023-04-03T04:54:30;10.20;44.10
11989;DHT22;6054;50.966;7.094;2023-04-03T04:56:57;10.20;43.90
11989;DHT22;6054;50.966;7.094;2023-04-03T04:59:25;10.10;44.10
11989;DHT22;6054;50.966;7.094;2023-04-03T05:01:52;10.20;44.20
11989;DHT22;6054;50.966;7.094;2023-04-03T05:04:19;10.10;43.20
11989;DHT22;6054;50.966;7.094;2023-04-03T05:06:46;10.10;44.10
11989;DHT22;6054;50.966;7.094;2023-04-03T05:09:12;10.10;43.80
11989;DHT22;6054;50.966;7.094;2023-04-03T05:11:40;10.10;44.20
11989;DHT22;6054;50.966;7.094;2023-04-03T05:14:06;10.10;44.00
11989;DHT22;6054;50.966;7.094;2023-04-03T05:16:34;10.10;44.20
11989;DHT22;6054;50.966;7.094;2023-04-03T05:19:02;10.10;44.00
11989;DHT22;6054;50.966;7.094;2023-04-03T05:21:29;10.10;44.40
11989;DHT22;6054;50.966;7.094;2023-04-03T05:23:57;10.10;44.40
11989;DHT22;6054;50.966;7.094;2023-04-03T05:26:24;10.10;44.40
11989;DHT22;6054;50.966;7.094;2023-04-03T05:28:52;10.10;44.40
11989;DHT22;6054;50.966;7.094;2023-04-03T05:31:18;10.10;44.20
11989;DHT22;6054;50.966;7.094;2023-04-03T05:33:47;10.30;44.00
11989;DHT22;6054;50.966;7.094;2023-04-03T05:36:14;10.00;44.10
11989;DHT22;6054;50.966;7.094;2023-04-03T05:38:40;10.10;44.50
11989;DHT22;6054;50.966;7.094;2023-04-03T05:41:07;10.10;44.40
11989;DHT22;6054;50.966;7.094;2023-04-03T05:43:34;10.10;43.90
11989;DHT22;6054;50.966;7.094;2023-04-03T05:46:03;10.10;44.60
11989;DHT22;6054;50.966;7.094;2023-04-03T05:48:29;10.10;44.40
11989;DHT22;6054;50.966;7.094;2023-04-03T05:50:58;10.10;44.60
11989;DHT22;6054;50.966;7.094;2023-04-03T05:53:27;10.10;44.40
11989;DHT22;6054;50.966;7.094;2023-04-03T05:55:54;10.10;44.90
11989;DHT22;6054;50.966;7.094;2023-04-03T05:58:21;10.10;44.90
11989;DHT22;6054;50.966;7.094;2023-04-03T06:00:48;10.20;45.00
11989;DHT22;6054;50.966;7.094;2023-04-03T06:03:15;10.20;45.20
11989;DHT22;6054;50.966;7.094;2023-04-03T06:05:42;10.30;45.40
11989;DHT22;6054;50.966;7.094;2023-04-03T06:08:10;10.50;45.30
11989;DHT22;6054;50.966;7.094;2023-04-03T06:10:37;10.60;45.20
11989;DHT22;6054;50.966;7.094;2023-04-03T06:13:03;10.40;45.00
11989;DHT22;6054;50.966;7.094;2023-04-03T06:15:30;10.40;44.90
11989;DHT22;6054;50.966;7.094;2023-04-03T06:17:57;10.50;44.80
11989;DHT22;6054;50.966;7.094;2023-04-03T06:20:23;10.50;44.70
11989;DHT22;6054;50.966;7.094;2023-04-03T06:22:50;10.70;44.50
11989;DHT22;6054;50.966;7.094;2023-04-03T06:25:18;10.50;44.50
11989;DHT22;6054;50.966;7.094;2023-04-03T06:27:46;10.60;44.60
11989;DHT22;6054;50.966;7.094;2023-04-03T06:30:13;10.60;44.50
11989;DHT22;6054;50.966;7.094;2023-04-03T06:32:40;10.60;44.30
11989;DHT22;6054;50.966;7.094;2023-04-03T06:35:08;10.70;44.50
11989;DHT22;6054;50.966;7.094;2023-04-03T06:37:36;10.70;44.70
11989;DHT22;6054;50.966;7.094;2023-04-03T06:40:03;10.70;44.30
11989;DHT22;6054;50.966;7.094;2023-04-03T06:42:32;10.80;44.50
11989;DHT22;6054;50.966;7.094;2023-04-03T06:44:59;10.80;43.90
11989;DHT22;6054;50.966;7.094;2023-04-03T06:47:25;10.80;44.00
11989;DHT22;6054;50.966;7.094;2023-04-03T06:49:52;10.80;43.80
11989;DHT22;6054;50.966;7.094;2023-04-03T06:52:19;10.90;43.60
11989;DHT22;6054;50.966;7.094;2023-04-03T06:54:46;10.90;43.40
11989;DHT22;6054;50.966;7.094;2023-04-03T06:57:12;10.90;43.40
11989;DHT22;6054;50.966;7.094;2023-04-03T06:59:42;10.90;43.00
11989;DHT22;6054;50.966;7.094;2023-04-03T07:02:11;11.00;43.20
11989;DHT22;6054;50.966;7.094;2023-04-03T07:04:38;11.00;43.20
11989;DHT22;6054;50.966;7.094;2023-04-03T07:07:05;11.10;42.70
11989;DHT22;6054;50.966;7.094;2023-04-03T07:09:32;11.10;42.60
11989;DHT22;6054;50.966;7.094;2023-04-03T07:11:58;11.10;42.00
11989;DHT22;6054;50.966;7.094;2023-04-03T07:14:25;11.30;42.60
11989;DHT22;6054;50.966;7.094;2023-04-03T07:16:53;11.20;42.10
11989;DHT22;6054;50.966;7.094;2023-04-03T07:19:20;11.10;41.60
11989;DHT22;6054;50.966;7.094;2023-04-03T07:21:47;11.20;41.70
11989;DHT22;6054;50.966;7.094;2023-04-03T07:24:13;11.40;41.30
11989;DHT22;6054;50.966;7.094;2023-04-03T07:26:40;11.20;40.90
11989;DHT22;6054;50.966;7.094;2023-04-03T07:29:07;11.50;41.40
11989;DHT22;6054;50.966;7.094;2023-04-03T07:31:34;11.30;41.40
11989;DHT22;6054;50.966;7.094;2023-04-03T07:34:02;11.30;41.40
11989;DHT22;6054;50.966;7.094;2023-04-03T07:36:29;11.40;42.00
11989;DHT22;6054;50.966;7.094;2023-04-03T07:38:58;11.40;41.60
11989;DHT22;6054;50.966;7.094;2023-04-03T07:41:25;11.50;41.60
11989;DHT22;6054;50.966;7.094;2023-04-03T07:43:52;11.70;41.40
11989;DHT22;6054;50.966;7.094;2023-04-03T07:46:20;11.60;41.70
11989;DHT22;6054;50.966;7.094;2023-04-03T07:48:47;11.60;41.50
11989;DHT22;6054;50.966;7.094;2023-04-03T07:51:15;11.70;41.70
11989;DHT22;6054;50.966;7.094;2023-04-03T07:53:42;11.80;41.50
11989;DHT22;6054;50.966;7.094;2023-04-03T07:56:08;11.80;41.00
11989;DHT22;6054;50.966;7.094;2023-04-03T07:58:36;11.80;41.10
11989;DHT22;6054;50.966;7.094;2023-04-03T08:01:03;11.90;40.70
11989;DHT22;6054;50.966;7.094;2023-04-03T08:03:30;12.00;41.10
11989;DHT22;6054;50.966;7.094;2023-04-03T08:06:02;12.00;41.10
11989;DHT22;6054;50.966;7.094;2023-04-03T08:08:31;12.10;41.60
11989;DHT22;6054;50.966;7.094;2023-04-03T08:11:01;12.10;40.20
11989;DHT22;6054;50.966;7.094;2023-04-03T08:13:30;12.20;40.70
11989;DHT22;6054;50.966;7.094;2023-04-03T08:15:57;12.30;40.80
11989;DHT22;6054;50.966;7.094;2023-04-03T08:18:24;12.30;39.70
11989;DHT22;6054;50.966;7.094;2023-04-03T08:20:52;12.30;39.80
11989;DHT22;6054;50.966;7.094;2023-04-03T08:23:19;12.60;39.90
11989;DHT22;6054;50.966;7.094;2023-04-03T08:25:47;12.50;39.50
11989;DHT22;6054;50.966;7.094;2023-04-03T08:28:14;12.80;39.80
11989;DHT22;6054;50.966;7.094;2023-04-03T08:30:41;12.60;39.10
11989;DHT22;6054;50.966;7.094;2023-04-03T08:33:09;12.60;38.60
11989;DHT22;6054;50.966;7.094;2023-04-03T08:35:38;12.60;37.50
11989;DHT22;6054;50.966;7.094;2023-04-03T08:38:06;12.60;38.00
11989;DHT22;6054;50.966;7.094;2023-04-03T08:40:32;12.80;37.80
11989;DHT22;6054;50.966;7.094;2023-04-03T08:43:16;13.00;37.30
11989;DHT22;6054;50.966;7.094;2023-04-03T08:45:50;12.90;37.30
11989;DHT22;6054;50.966;7.094;2023-04-03T08:48:20;13.00;35.80
11989;DHT22;6054;50.966;7.094;2023-04-03T08:50:51;13.00;35.20
11989;DHT22;6054;50.966;7.094;2023-04-03T08:53:22;13.30;35.30
11989;DHT22;6054;50.966;7.094;2023-04-03T08:55:53;13.20;34.30
11989;DHT22;6054;50.966;7.094;2023-04-03T08:58:24;13.30;34.20
11989;DHT22;6054;50.966;7.094;2023-04-03T09:00:55;13.10;34.50
11989;DHT22;6054;50.966;7.094;2023-04-03T09:03:24;13.10;33.70
11989;DHT22;6054;50.966;7.094;2023-04-03T09:05:53;13.10;33.60
11989;DHT22;6054;50.966;7.094;2023-04-03T09:08:25;13.20;34.20
11989;DHT22;6054;50.966;7.094;2023-04-03T09:10:59;13.30;34.20
11989;DHT22;6054;50.966;7.094;2023-04-03T09:13:35;13.40;34.30
11989;DHT22;6054;50.966;7.094;2023-04-03T09:16:20;13.50;33.70
11989;DHT22;6054;50.966;7.094;2023-04-03T09:18:54;13.60;34.00
11989;DHT22;6054;50.966;7.094;2023-04-03T09:21:26;13.70;33.90
11989;DHT22;6054;50.966;7.094;2023-04-03T09:23:59;13.80;33.50
11989;DHT22;6054;50.966;7.094;2023-04-03T09:26:31;13.90;33.80
11989;DHT22;6054;50.966;7.094;2023-04-03T09:29:05;13.90;32.80
11989;DHT22;6054;50.966;7.094;2023-04-03T09:31:36;14.00;33.10
11989;DHT22;6054;50.966;7.094;2023-04-03T09:34:06;14.00;33.60
11989;DHT22;6054;50.966;7.094;2023-04-03T09:36:38;14.50;34.00
11989;DHT22;6054;50.966;7.094;2023-04-03T09:39:07;14.30;33.70
11989;DHT22;6054;50.966;7.094;2023-04-03T09:41:36;14.40;33.30
11989;DHT22;6054;50.966;7.094;2023-04-03T09:44:20;14.50;33.00
11989;DHT22;6054;50.966;7.094;2023-04-03T09:46:47;14.60;33.60
11989;DHT22;6054;50.966;7.094;2023-04-03T09:49:13;14.60;33.20
11989;DHT22;6054;50.966;7.094;2023-04-03T09:51:41;14.80;33.70
11989;DHT22;6054;50.966;7.094;2023-04-03T09:54:34;14.80;31.30
11989;DHT22;6054;50.966;7.094;2023-04-03T09:57:07;14.90;30.90
11989;DHT22;6054;50.966;7.094;2023-04-03T09:59:37;15.00;31.10
11989;DHT22;6054;50.966;7.094;2023-04-03T10:02:22;15.10;31.30
11989;DHT22;6054;50.966;7.094;2023-04-03T10:04:49;15.20;30.20
11989;DHT22;6054;50.966;7.094;2023-04-03T10:07:28;15.20;28.50
11989;DHT22;6054;50.966;7.094;2023-04-03T10:09:56;15.20;29.90
11989;DHT22;6054;50.966;7.094;2023-04-03T10:12:23;15.30;29.40
11989;DHT22;6054;50.966;7.094;2023-04-03T10:14:56;15.30;29.20
11989;DHT22;6054;50.966;7.094;2023-04-03T10:17:37;15.40;28.90
11989;DHT22;6054;50.966;7.094;2023-04-03T10:20:16;15.50;28.00
11989;DHT22;6054;50.966;7.094;2023-04-03T10:22:54;15.50;27.60
11989;DHT22;6054;50.966;7.094;2023-04-03T10:25:27;15.60;28.00
11989;DHT22;6054;50.966;7.094;2023-04-03T10:28:00;15.60;28.00
11989;DHT22;6054;50.966;7.094;2023-04-03T10:30:36;15.70;27.80
11989;DHT22;6054;50.966;7.094;2023-04-03T10:33:17;15.60;28.30
11989;DHT22;6054;50.966;7.094;2023-04-03T10:35:57;15.70;28.40
11989;DHT22;6054;50.966;7.094;2023-04-03T10:38:33;15.80;28.40
11989;DHT22;6054;50.966;7.094;2023-04-03T10:41:07;15.90;27.60
11989;DHT22;6054;50.966;7.094;2023-04-03T10:43:44;16.00;27.70
11989;DHT22;6054;50.966;7.094;2023-04-03T10:46:22;16.20;27.60
11989;DHT22;6054;50.966;7.094;2023-04-03T10:49:00;16.10;27.20
11989;DHT22;6054;50.966;7.094;2023-04-03T10:51:36;16.10;26.60
11989;DHT22;6054;50.966;7.094;2023-04-03T10:54:11;16.20;26.20
11989;DHT22;6054;50.966;7.094;2023-04-03T10:56:42;16.20;26.90
11989;DHT22;6054;50.966;7.094;2023-04-03T10:59:21;16.20;26.60
11989;DHT22;6054;50.966;7.094;2023-04-03T11:01:55;16.40;26.80
11989;DHT22;6054;50.966;7.094;2023-04-03T11:04:25;16.40;26.30
11989;DHT22;6054;50.966;7.094;2023-04-03T11:06:57;16.40;25.80
11989;DHT22;6054;50.966;7.094;2023-04-03T11:09:27;16.50;26.50
11989;DHT22;6054;50.966;7.094;2023-04-03T11:12:00;16.50;26.50
11989;DHT22;6054;50.966;7.094;2023-04-03T11:14:30;16.60;26.30
11989;DHT22;6054;50.966;7.094;2023-04-03T11:17:09;16.70;26.40
11989;DHT22;6054;50.966;7.094;2023-04-03T11:19:41;16.80;27.10
11989;DHT22;6054;50.966;7.094;2023-04-03T11:22:16;17.00;27.00
11989;DHT22;6054;50.966;7.094;2023-04-03T11:24:55;17.00;26.70
11989;DHT22;6054;50.966;7.094;2023-04-03T11:27:24;17.00;26.00
11989;DHT22;6054;50.966;7.094;2023-04-03T11:29:53;17.40;26.50
11989;DHT22;6054;50.966;7.094;2023-04-03T11:32:37;17.20;26.70
11989;DHT22;6054;50.966;7.094;2023-04-03T11:35:10;17.30;26.60
11989;DHT22;6054;50.966;7.094;2023-04-03T11:37:40;17.30;26.10
11989;DHT22;6054;50.966;7.094;2023-04-03T11:40:26;17.30;26.20
11989;DHT22;6054;50.966;7.094;2023-04-03T11:42:55;17.40;25.50
11989;DHT22;6054;50.966;7.094;2023-04-03T11:45:36;17.40;25.30
11989;DHT22;6054;50.966;7.094;2023-04-03T11:48:06;17.50;25.90
11989;DHT22;6054;50.966;7.094;2023-04-03T11:50:43;17.60;25.60
11989;DHT22;6054;50.966;7.094;2023-04-03T11:53:28;17.60;25.40
11989;DHT22;6054;50.966;7.094;2023-04-03T11:55:57;17.70;26.20
11989;DHT22;6054;50.966;7.094;2023-04-03T11:58:26;17.90;26.30
11989;DHT22;6054;50.966;7.094;2023-04-03T12:00:55;18.00;25.00
11989;DHT22;6054;50.966;7.094;2023-04-03T12:10:17;17.80;25.70
11989;DHT22;6054;50.966;7.094;2023-04-03T12:12:56;18.00;25.70
11989;DHT22;6054;50.966;7.094;2023-04-03T12:18:55;18.40;26.10
11989;DHT22;6054;50.966;7.094;2023-04-03T12:22:04;18.60;25.70
11989;DHT22;6054;50.966;7.094;2023-04-03T12:24:28;18.70;25.80
11989;DHT22;6054;50.966;7.094;2023-04-03T12:27:05;18.80;25.60
11989;DHT22;6054;50.966;7.094;2023-04-03T12:29:39;19.00;25.40
11989;DHT22;6054;50.966;7.094;2023-04-03T12:32:18;19.00;25.10
11989;DHT22;6054;50.966;7.094;2023-04-03T12:35:04;19.00;25.00
11989;DHT22;6054;50.966;7.094;2023-04-03T12:37:42;19.20;24.80
11989;DHT22;6054;50.966;7.094;2023-04-03T12:40:16;19.30;24.90
11989;DHT22;6054;50.966;7.094;2023-04-03T12:43:02;19.40;24.60
11989;DHT22;6054;50.966;7.094;2023-04-03T12:45:41;19.50;24.20
11989;DHT22;6054;50.966;7.094;2023-04-03T12:48:14;19.50;24.00
11989;DHT22;6054;50.966;7.094;2023-04-03T12:50:43;19.70;23.50
11989;DHT22;6054;50.966;7.094;2023-04-03T12:53:13;19.50;23.40
11989;DHT22;6054;50.966;7.094;2023-04-03T12:55:45;19.50;23.90
11989;DHT22;6054;50.966;7.094;2023-04-03T12:58:16;19.50;23.40
11989;DHT22;6054;50.966;7.094;2023-04-03T13:00:43;19.50;23.20
11989;DHT22;6054;50.966;7.094;2023-04-03T13:03:22;19.60;23.60
11989;DHT22;6054;50.966;7.094;2023-04-03T13:05:52;19.70;23.30
11989;DHT22;6054;50.966;7.094;2023-04-03T13:08:20;19.60;23.70
11989;DHT22;6054;50.966;7.094;2023-04-03T13:10:52;19.90;23.70
11989;DHT22;6054;50.966;7.094;2023-04-03T13:13:21;19.90;23.60
11989;DHT22;6054;50.966;7.094;2023-04-03T13:15:49;20.00;23.50
11989;DHT22;6054;50.966;7.094;2023-04-03T13:18:26;20.00;23.60
11989;DHT22;6054;50.966;7.094;2023-04-03T13:20:58;19.90;23.80
11989;DHT22;6054;50.966;7.094;2023-04-03T13:23:26;20.00;24.20
11989;DHT22;6054;50.966;7.094;2023-04-03T13:25:55;19.90;23.40
11989;DHT22;6054;50.966;7.094;2023-04-03T13:28:27;19.60;23.90
11989;DHT22;6054;50.966;7.094;2023-04-03T13:30:56;19.50;23.60
11989;DHT22;6054;50.966;7.094;2023-04-03T13:33:28;19.50;23.90
11989;DHT22;6054;50.966;7.094;2023-04-03T13:35:58;19.70;23.70
11989;DHT22;6054;50.966;7.094;2023-04-03T13:38:29;19.60;23.60
11989;DHT22;6054;50.966;7.094;2023-04-03T13:40:59;19.70;23.80
11989;DHT22;6054;50.966;7.094;2023-04-03T13:43:29;19.90;23.70
11989;DHT22;6054;50.966;7.094;2023-04-03T13:46:03;19.80;23.90
11989;DHT22;6054;50.966;7.094;2023-04-03T13:48:37;19.80;24.00
11989;DHT22;6054;50.966;7.094;2023-04-03T13:51:16;20.00;24.70
11989;DHT22;6054;50.966;7.094;2023-04-03T13:53:45;20.10;24.00
11989;DHT22;6054;50.966;7.094;2023-04-03T13:56:21;20.20;23.70
11989;DHT22;6054;50.966;7.094;2023-04-03T13:58:56;20.30;24.10
11989;DHT22;6054;50.966;7.094;2023-04-03T14:01:24;20.50;24.60
11989;DHT22;6054;50.966;7.094;2023-04-03T14:03:54;20.60;24.00
11989;DHT22;6054;50.966;7.094;2023-04-03T14:06:22;20.80;24.10
11989;DHT22;6054;50.966;7.094;2023-04-03T14:08:49;21.00;24.30
11989;DHT22;6054;50.966;7.094;2023-04-03T14:11:20;21.20;24.10
11989;DHT22;6054;50.966;7.094;2023-04-03T14:13:48;21.30;23.90
11989;DHT22;6054;50.966;7.094;2023-04-03T14:16:19;21.40;23.70
11989;DHT22;6054;50.966;7.094;2023-04-03T14:18:48;21.30;23.10
11989;DHT22;6054;50.966;7.094;2023-04-03T14:21:16;21.40;23.60
11989;DHT22;6054;50.966;7.094;2023-04-03T14:23:43;21.60;23.20
11989;DHT22;6054;50.966;7.094;2023-04-03T14:26:12;21.50;23.40
11989;DHT22;6054;50.966;7.094;2023-04-03T14:28:43;21.50;23.70
11989;DHT22;6054;50.966;7.094;2023-04-03T14:31:11;21.50;23.10
11989;DHT22;6054;50.966;7.094;2023-04-03T14:33:39;21.40;23.10
11989;DHT22;6054;50.966;7.094;2023-04-03T14:36:12;21.40;23.10
11989;DHT22;6054;50.966;7.094;2023-04-03T14:38:40;21.50;22.80
11989;DHT22;6054;50.966;7.094;2023-04-03T14:41:09;21.20;22.70
11989;DHT22;6054;50.966;7.094;2023-04-03T14:43:37;21.10;23.00
11989;DHT22;6054;50.966;7.094;2023-04-03T14:46:12;21.00;22.00
11989;DHT22;6054;50.966;7.094;2023-04-03T14:48:39;21.20;23.10
11989;DHT22;6054;50.966;7.094;2023-04-03T14:51:06;20.80;23.70
11989;DHT22;6054;50.966;7.094;2023-04-03T14:53:32;20.70;23.10
11989;DHT22;6054;50.966;7.094;2023-04-03T14:55:59;20.50;23.10
11989;DHT22;6054;50.966;7.094;2023-04-03T14:58:27;20.30;23.20
11989;DHT22;6054;50.966;7.094;2023-04-03T15:00:54;20.20;23.00
11989;DHT22;6054;50.966;7.094;2023-04-03T15:03:27;20.40;23.50
11989;DHT22;6054;50.966;7.094;2023-04-03T15:05:54;20.10;23.30
11989;DHT22;6054;50.966;7.094;2023-04-03T15:08:23;20.00;23.30
11989;DHT22;6054;50.966;7.094;2023-04-03T15:10:51;20.00;23.80
11989;DHT22;6054;50.966;7.094;2023-04-03T15:13:21;20.10;23.70
11989;DHT22;6054;50.966;7.094;2023-04-03T15:15:48;20.30;23.70
11989;DHT22;6054;50.966;7.094;2023-04-03T15:18:19;20.70;23.50
11989;DHT22;6054;50.966;7.094;2023-04-03T15:20:48;20.40;23.10
11989;DHT22;6054;50.966;7.094;2023-04-03T15:23:16;20.50;22.80
11989;DHT22;6054;50.966;7.094;2023-04-03T15:25:43;20.30;22.90
11989;DHT22;6054;50.966;7.094;2023-04-03T15:28:18;20.20;23.10
11989;DHT22;6054;50.966;7.094;2023-04-03T15:30:45;20.20;23.30
11989;DHT22;6054;50.966;7.094;2023-04-03T15:33:11;20.20;23.30
11989;DHT22;6054;50.966;7.094;2023-04-03T15:35:38;20.10;24.10
11989;DHT22;6054;50.966;7.094;2023-04-03T15:38:06;20.20;23.50
11989;DHT22;6054;50.966;7.094;2023-04-03T15:40:33;20.30;24.00
11989;DHT22;6054;50.966;7.094;2023-04-03T15:43:00;20.60;24.30
11989;DHT22;6054;50.966;7.094;2023-04-03T15:45:29;21.00;23.80
11989;DHT22;6054;50.966;7.094;2023-04-03T15:47:57;21.30;22.90
11989;DHT22;6054;50.966;7.094;2023-04-03T15:50:23;21.40;23.20
11989;DHT22;6054;50.966;7.094;2023-04-03T15:52:50;21.60;23.30
11989;DHT22;6054;50.966;7.094;2023-04-03T15:55:21;22.00;23.80
11989;DHT22;6054;50.966;7.094;2023-04-03T15:57:48;22.00;23.90
11989;DHT22;6054;50.966;7.094;2023-04-03T16:00:15;22.20;23.60
11989;DHT22;6054;50.966;7.094;2023-04-03T16:02:43;22.50;23.10
11989;DHT22;6054;50.966;7.094;2023-04-03T16:05:10;22.70;22.90
11989;DHT22;6054;50.966;7.094;2023-04-03T16:07:39;22.80;22.80
11989;DHT22;6054;50.966;7.094;2023-04-03T16:10:07;23.00;23.00
11989;DHT22;6054;50.966;7.094;2023-04-03T16:12:36;23.30;22.80